createdAt,value
2019-03-12T00:00:39.556Z,5.45
2019-03-12T00:03:07.734Z,5.49
2019-03-12T00:05:35.490Z,5.43
2019-03-12T00:08:03.338Z,5.45
2019-03-12T00:10:31.094Z,5.46
2019-03-12T00:12:58.871Z,5.51
2019-03-12T00:15:26.615Z,5.57
2019-03-12T00:17:54.413Z,5.62
2019-03-12T00:20:22.213Z,5.68
2019-03-12T00:22:49.993Z,5.64
2019-03-12T00:25:17.709Z,5.56
2019-03-12T00:27:45.467Z,5.54
2019-03-12T00:30:13.205Z,5.55
2019-03-12T00:32:40.961Z,5.59
2019-03-12T00:35:09.051Z,5.61
2019-03-12T00:37:36.804Z,5.47
2019-03-12T00:40:05.561Z,5.50
2019-03-12T00:42:33.294Z,5.48
2019-03-12T00:45:01.102Z,5.42
2019-03-12T00:47:28.867Z,5.34
2019-03-12T00:49:56.659Z,5.39
2019-03-12T00:52:24.420Z,5.40
2019-03-12T00:54:52.214Z,5.38
2019-03-12T00:57:19.939Z,5.41
2019-03-12T00:59:47.683Z,5.55
2019-03-12T01:02:18.762Z,5.41
2019-03-12T01:04:46.472Z,5.44
2019-03-12T01:07:14.217Z,5.43
2019-03-12T01:09:41.970Z,5.26
2019-03-12T01:12:09.714Z,5.12
2019-03-12T01:14:37.507Z,5.05
2019-03-12T01:17:05.243Z,5.07
2019-03-12T01:19:33.038Z,5.19
2019-03-12T01:22:00.788Z,5.37
2019-03-12T01:24:28.558Z,5.10
2019-03-12T01:26:56.316Z,5.20
2019-03-12T01:29:24.108Z,5.25
2019-03-12T01:31:51.849Z,5.36
2019-03-12T01:34:19.614Z,5.34
2019-03-12T01:36:47.355Z,5.43
2019-03-12T01:39:15.094Z,5.52
2019-03-12T01:41:42.858Z,5.63
2019-03-12T01:44:10.604Z,5.74
2019-03-12T01:46:38.360Z,5.63
2019-03-12T01:49:06.104Z,5.37
2019-03-12T01:51:33.879Z,5.31
2019-03-12T01:54:01.612Z,5.23
2019-03-12T01:56:29.368Z,5.10
2019-03-12T01:58:57.121Z,5.05
2019-03-12T02:01:24.912Z,4.95
2019-03-12T02:03:52.635Z,5.00
2019-03-12T02:06:20.425Z,4.97
2019-03-12T02:08:48.204Z,4.90
2019-03-12T02:11:15.959Z,4.96
2019-03-12T02:13:43.701Z,5.00
2019-03-12T02:16:11.437Z,5.02
2019-03-12T02:18:39.181Z,5.17
2019-03-12T02:21:06.997Z,5.27
2019-03-12T02:23:35.027Z,5.31
2019-03-12T02:26:02.805Z,5.19
2019-03-12T02:28:30.558Z,5.23
2019-03-12T02:30:58.357Z,5.20
2019-03-12T02:33:26.105Z,5.36
2019-03-12T02:35:53.907Z,5.29
2019-03-12T02:38:21.768Z,5.29
2019-03-12T02:40:49.596Z,5.39
2019-03-12T02:43:17.348Z,5.42
2019-03-12T02:45:45.156Z,5.37
2019-03-12T02:48:12.880Z,5.29
2019-03-12T02:50:40.629Z,5.29
2019-03-12T02:53:08.392Z,5.35
2019-03-12T02:55:36.149Z,5.33
2019-03-12T02:58:03.913Z,5.27
2019-03-12T03:00:31.663Z,5.24
2019-03-12T03:02:59.423Z,5.48
2019-03-12T03:05:27.185Z,5.47
2019-03-12T03:08:00.782Z,5.52
2019-03-12T03:10:28.507Z,5.51
2019-03-12T03:12:56.274Z,5.41
2019-03-12T03:15:27.315Z,5.36
2019-03-12T03:17:55.079Z,5.45
2019-03-12T03:20:22.826Z,5.35
2019-03-12T03:22:50.609Z,5.05
2019-03-12T03:25:18.352Z,4.97
2019-03-12T03:27:46.110Z,4.83
2019-03-12T03:30:20.028Z,4.82
2019-03-12T03:32:47.809Z,4.78
2019-03-12T03:35:15.605Z,4.78
2019-03-12T03:37:43.579Z,4.84
2019-03-12T03:40:15.546Z,4.87
2019-03-12T03:42:43.332Z,4.91
2019-03-12T03:45:11.228Z,4.89
2019-03-12T03:47:39.003Z,4.91
2019-03-12T03:50:07.183Z,4.75
2019-03-12T03:52:34.940Z,4.77
2019-03-12T03:55:02.917Z,4.78
2019-03-12T03:57:30.676Z,4.84
2019-03-12T03:59:58.429Z,4.71
2019-03-12T04:02:26.223Z,4.65
2019-03-12T04:04:53.948Z,4.52
2019-03-12T04:07:21.719Z,4.62
2019-03-12T04:09:49.474Z,4.60
2019-03-12T04:12:17.219Z,4.59
2019-03-12T04:14:45.007Z,4.58
2019-03-12T04:17:12.776Z,4.55
2019-03-12T04:19:40.511Z,4.41
2019-03-12T04:22:08.226Z,4.27
2019-03-12T04:24:36.011Z,4.23
2019-03-12T04:27:03.770Z,4.22
2019-03-12T04:29:31.610Z,4.13
2019-03-12T04:31:59.402Z,4.11
2019-03-12T04:34:40.122Z,4.08
2019-03-12T04:37:07.917Z,4.07
2019-03-12T04:39:35.655Z,3.98
2019-03-12T04:42:03.432Z,3.95
2019-03-12T04:44:31.233Z,4.02
2019-03-12T04:46:58.978Z,4.04
2019-03-12T04:49:26.743Z,4.02
2019-03-12T04:51:54.477Z,4.10
2019-03-12T04:54:22.248Z,4.24
2019-03-12T04:56:50.014Z,4.37
2019-03-12T04:59:17.776Z,4.52
2019-03-12T05:01:45.521Z,4.57
2019-03-12T05:04:13.298Z,4.61
2019-03-12T05:06:41.043Z,4.63
2019-03-12T05:09:08.798Z,4.65
2019-03-12T05:11:37.049Z,4.55
2019-03-12T05:14:28.535Z,4.55
2019-03-12T05:17:12.016Z,4.66
2019-03-12T05:19:44.393Z,4.73
2019-03-12T05:22:12.352Z,4.69
2019-03-12T05:24:40.092Z,4.77
2019-03-12T05:27:08.006Z,4.78
2019-03-12T05:29:35.750Z,4.70
2019-03-12T05:32:03.510Z,4.70
2019-03-12T05:34:32.144Z,4.69
2019-03-12T05:36:59.923Z,4.70
2019-03-12T05:39:27.666Z,4.69
2019-03-12T05:41:55.456Z,4.70
2019-03-12T05:44:23.222Z,4.70
2019-03-12T05:46:50.990Z,4.68
2019-03-12T05:49:18.737Z,4.74
2019-03-12T05:51:46.515Z,4.80
2019-03-12T05:54:14.330Z,4.81
2019-03-12T05:56:42.389Z,4.90
2019-03-12T05:59:10.181Z,4.85
2019-03-12T06:01:37.937Z,4.89
2019-03-12T06:04:05.693Z,5.06
2019-03-12T06:06:33.443Z,5.07
2019-03-12T06:09:01.195Z,5.10
2019-03-12T06:11:28.977Z,5.19
2019-03-12T06:13:56.743Z,5.14
2019-03-12T06:16:24.525Z,5.30
2019-03-12T06:18:52.375Z,5.35
2019-03-12T06:21:20.150Z,5.29
2019-03-12T06:23:47.899Z,5.31
2019-03-12T06:26:15.687Z,5.43
2019-03-12T06:28:43.437Z,5.44
2019-03-12T06:31:48.759Z,5.49
2019-03-12T06:34:47.835Z,5.57
2019-03-12T06:37:27.915Z,5.58
2019-03-12T06:40:13.642Z,5.57
2019-03-12T06:43:00.997Z,5.59
2019-03-12T06:45:37.729Z,5.64
2019-03-12T06:48:28.128Z,5.70
2019-03-12T06:51:05.025Z,5.75
2019-03-12T06:53:55.985Z,5.74
2019-03-12T06:56:40.101Z,5.81
2019-03-12T06:59:19.409Z,5.90
2019-03-12T07:02:09.840Z,6.00
2019-03-12T07:04:52.159Z,6.16
2019-03-12T07:07:41.790Z,6.28
2019-03-12T07:10:26.929Z,6.40
2019-03-12T07:13:17.474Z,6.56
2019-03-12T07:15:54.110Z,6.52
2019-03-12T07:18:40.208Z,6.67
2019-03-12T07:21:37.318Z,6.58
2019-03-12T07:24:27.718Z,6.51
2019-03-12T07:27:13.620Z,6.55
2019-03-12T07:30:01.042Z,6.63
2019-03-12T07:33:00.258Z,6.67
2019-03-12T07:35:47.692Z,6.86
2019-03-12T07:38:38.088Z,6.99
2019-03-12T07:41:32.343Z,6.86
2019-03-12T07:44:13.024Z,6.87
2019-03-12T07:47:00.478Z,6.98
2019-03-12T07:49:50.623Z,7.05
2019-03-12T07:52:34.279Z,7.17
2019-03-12T07:55:21.640Z,7.48
2019-03-12T07:58:05.535Z,7.86
2019-03-12T08:01:07.746Z,8.28
2019-03-12T08:03:50.278Z,8.44
2019-03-12T08:06:30.910Z,8.63
2019-03-12T08:09:08.959Z,8.67
2019-03-12T08:11:43.685Z,8.64
2019-03-12T08:14:39.537Z,8.86
2019-03-12T08:17:28.425Z,9.02
2019-03-12T08:20:03.716Z,9.23
2019-03-12T08:22:54.059Z,9.39
2019-03-12T08:25:59.368Z,9.41
2019-03-12T08:28:49.501Z,9.61
2019-03-12T08:31:39.919Z,9.83
2019-03-12T08:34:15.951Z,9.83
2019-03-12T08:37:03.331Z,9.55
2019-03-12T08:39:50.740Z,9.32
2019-03-12T08:42:38.120Z,8.82
2019-03-12T08:45:17.232Z,8.50
2019-03-12T08:48:02.975Z,8.06
2019-03-12T08:50:41.001Z,7.96
2019-03-12T08:53:34.493Z,7.96
2019-03-12T08:56:14.625Z,7.97
2019-03-12T08:59:00.617Z,8.08
2019-03-12T09:01:47.673Z,8.33
2019-03-12T09:04:30.339Z,8.81
2019-03-12T09:07:26.797Z,9.13
2019-03-12T09:10:12.240Z,9.25
2019-03-12T09:12:47.803Z,9.58
2019-03-12T09:15:35.916Z,9.65
2019-03-12T09:18:23.017Z,9.49
2019-03-12T09:21:07.620Z,9.24
2019-03-12T09:24:03.926Z,9.22
2019-03-12T09:27:06.150Z,9.14
2019-03-12T09:29:59.323Z,9.33
2019-03-12T09:32:38.344Z,9.41
2019-03-12T09:35:19.480Z,9.65
2019-03-12T09:37:56.103Z,9.95
2019-03-12T09:40:50.763Z,9.94
2019-03-12T09:43:50.308Z,10.07
2019-03-12T09:46:40.455Z,10.48
2019-03-12T09:49:18.779Z,10.51
2019-03-12T09:51:56.873Z,10.07
2019-03-12T09:54:59.431Z,9.80
2019-03-12T09:58:01.795Z,9.78
2019-03-12T10:00:43.227Z,9.97
2019-03-12T10:03:32.209Z,10.45
2019-03-12T10:06:17.311Z,10.99
2019-03-12T10:09:16.805Z,10.64
2019-03-12T10:11:54.630Z,10.75
2019-03-12T10:14:47.897Z,10.88
2019-03-12T10:17:44.073Z,11.27
2019-03-12T10:20:26.299Z,10.94
2019-03-12T10:23:16.720Z,10.81
2019-03-12T10:26:02.434Z,10.63
2019-03-12T10:28:43.829Z,10.92
2019-03-12T10:31:20.930Z,10.88
2019-03-12T10:33:56.642Z,10.90
2019-03-12T10:36:35.662Z,11.18
2019-03-12T10:40:18.093Z,11.98
2019-03-12T10:43:42.234Z,13.63
2019-03-12T10:46:21.011Z,15.75
2019-03-12T10:48:48.786Z,19.08
2019-03-12T10:51:16.558Z,21.87
2019-03-12T10:53:44.313Z,20.75
2019-03-12T10:56:12.067Z,20.36
2019-03-12T10:58:39.858Z,21.42
2019-03-12T11:01:07.634Z,20.18
2019-03-12T11:03:35.429Z,18.75
2019-03-12T11:06:03.296Z,17.92
2019-03-12T11:08:31.028Z,16.55
2019-03-12T11:10:58.804Z,16.43
2019-03-12T11:13:26.567Z,15.85
2019-03-12T11:15:54.369Z,14.89
2019-03-12T11:18:22.132Z,15.22
2019-03-12T11:20:49.900Z,14.60
2019-03-12T11:23:17.654Z,13.75
2019-03-12T11:25:45.422Z,13.42
2019-03-12T11:28:13.170Z,14.12
2019-03-12T11:30:41.182Z,15.42
2019-03-12T11:33:08.880Z,18.66
2019-03-12T11:35:39.285Z,20.21
2019-03-12T11:38:06.485Z,19.23
2019-03-12T11:40:34.370Z,21.39
2019-03-12T11:43:02.174Z,19.60
2019-03-12T11:45:36.193Z,18.35
2019-03-12T11:47:59.585Z,18.67
2019-03-12T11:50:27.321Z,18.00
2019-03-12T11:52:58.190Z,20.53
2019-03-12T11:55:24.760Z,19.42
2019-03-12T11:57:52.562Z,20.60
2019-03-12T12:00:33.437Z,23.83
2019-03-12T12:03:01.294Z,24.54
2019-03-12T12:05:29.062Z,23.56
2019-03-12T12:07:56.851Z,23.32
2019-03-12T12:10:24.816Z,23.20
2019-03-12T12:12:52.906Z,22.90
2019-03-12T12:15:21.571Z,23.81
2019-03-12T12:17:50.131Z,23.61
2019-03-12T12:20:28.786Z,25.62
2019-03-12T12:22:47.655Z,25.86
2019-03-12T12:25:15.511Z,23.30
2019-03-12T12:27:43.274Z,23.09
2019-03-12T12:30:14.239Z,23.63
2019-03-12T12:32:42.010Z,21.78
2019-03-12T12:35:09.909Z,22.30
2019-03-12T12:37:37.720Z,22.27
2019-03-12T12:40:07.752Z,20.49
2019-03-12T12:42:36.299Z,19.26
2019-03-12T12:45:04.981Z,21.14
2019-03-12T12:47:32.738Z,21.72
2019-03-12T12:50:00.611Z,21.78
2019-03-12T12:52:28.358Z,20.90
2019-03-12T12:54:56.111Z,18.65
2019-03-12T12:57:23.910Z,19.78
2019-03-12T12:59:51.992Z,19.27
2019-03-12T13:02:19.854Z,21.04
2019-03-12T13:04:47.648Z,22.09
2019-03-12T13:07:15.404Z,21.62
2019-03-12T13:09:43.190Z,20.34
2019-03-12T13:12:11.139Z,19.70
2019-03-12T13:14:41.662Z,21.24
2019-03-12T13:17:08.752Z,21.19
2019-03-12T13:19:36.562Z,19.73
2019-03-12T13:22:04.390Z,18.23
2019-03-12T13:24:32.246Z,18.92
2019-03-12T13:27:00.024Z,20.03
2019-03-12T13:29:27.817Z,20.90
2019-03-12T13:31:57.407Z,20.93
2019-03-12T13:34:25.274Z,19.26
2019-03-12T13:36:53.014Z,19.53
2019-03-12T13:39:20.827Z,19.54
2019-03-12T13:41:48.676Z,21.47
2019-03-12T13:44:16.447Z,24.19
2019-03-12T13:46:44.248Z,24.15
2019-03-12T13:49:12.126Z,22.58
2019-03-12T13:51:40.263Z,21.30
2019-03-12T13:54:09.773Z,22.21
2019-03-12T13:56:37.797Z,22.88
2019-03-12T13:59:05.544Z,24.26
2019-03-12T14:01:33.302Z,23.83
2019-03-12T14:04:10.529Z,20.14
2019-03-12T14:06:30.707Z,17.49
2019-03-12T14:08:58.481Z,16.42
2019-03-12T14:11:26.359Z,15.93
2019-03-12T14:13:54.089Z,16.33
2019-03-12T14:16:21.881Z,17.14
2019-03-12T14:18:49.923Z,18.66
2019-03-12T14:21:17.642Z,18.40
2019-03-12T14:24:01.374Z,17.52
2019-03-12T14:26:29.352Z,16.24
2019-03-12T14:28:57.091Z,16.35
2019-03-12T14:31:24.876Z,16.78
2019-03-12T14:33:52.622Z,16.70
2019-03-12T14:36:20.511Z,15.70
2019-03-12T14:38:48.292Z,15.39
2019-03-12T14:41:16.085Z,14.66
2019-03-12T14:43:43.917Z,14.13
2019-03-12T14:46:11.888Z,14.25
2019-03-12T14:48:47.700Z,15.12
2019-03-12T14:52:19.541Z,14.49
2019-03-12T14:54:47.295Z,16.40
2019-03-12T14:57:15.081Z,17.83
2019-03-12T14:59:42.866Z,18.68
2019-03-12T15:02:10.646Z,19.48
2019-03-12T15:04:38.839Z,18.80
2019-03-12T15:07:06.666Z,18.28
2019-03-12T15:09:34.420Z,18.13
2019-03-12T15:12:02.206Z,17.49
2019-03-12T15:14:29.970Z,16.26
2019-03-12T15:16:57.743Z,15.11
2019-03-12T15:19:25.471Z,14.24
2019-03-12T15:21:53.240Z,13.40
2019-03-12T15:24:21.016Z,12.50
2019-03-12T15:26:48.827Z,12.03
2019-03-12T15:29:16.611Z,11.96
2019-03-12T15:31:44.800Z,11.60
2019-03-12T15:34:13.369Z,11.46
2019-03-12T15:36:41.158Z,11.40
2019-03-12T15:39:09.383Z,11.37
2019-03-12T15:41:37.190Z,11.46
2019-03-12T15:44:04.989Z,11.28
2019-03-12T15:46:32.787Z,11.28
2019-03-12T15:49:00.576Z,11.23
2019-03-12T15:51:28.331Z,11.13
2019-03-12T15:53:56.157Z,11.08
2019-03-12T15:56:23.917Z,11.08
2019-03-12T15:58:52.029Z,11.17
2019-03-12T16:01:19.772Z,10.98
2019-03-12T16:03:47.619Z,10.96
2019-03-12T16:06:16.589Z,10.88
2019-03-12T16:08:44.443Z,11.00
2019-03-12T16:11:12.145Z,10.95
2019-03-12T16:13:39.955Z,10.98
2019-03-12T16:16:07.728Z,10.79
2019-03-12T16:18:35.495Z,10.60
2019-03-12T16:21:03.618Z,10.51
2019-03-12T16:23:31.406Z,10.50
2019-03-12T16:25:59.183Z,10.49
2019-03-12T16:28:26.955Z,10.29
2019-03-12T16:30:54.683Z,10.19
2019-03-12T16:33:22.485Z,10.30
2019-03-12T16:35:50.333Z,10.01
2019-03-12T16:38:18.131Z,10.01
2019-03-12T16:40:46.160Z,9.96
2019-03-12T16:43:13.961Z,9.87
2019-03-12T16:45:41.744Z,9.89
2019-03-12T16:48:09.489Z,9.85
2019-03-12T16:50:37.315Z,9.72
2019-03-12T16:53:05.088Z,9.73
2019-03-12T16:55:32.902Z,9.61
2019-03-12T16:58:00.637Z,9.66
2019-03-12T17:00:28.506Z,9.56
2019-03-12T17:02:56.296Z,9.67
2019-03-12T17:05:26.279Z,9.63
2019-03-12T17:07:53.754Z,9.62
2019-03-12T17:10:22.303Z,9.59
2019-03-12T17:12:50.148Z,9.64
2019-03-12T17:15:18.054Z,9.58
2019-03-12T17:17:45.859Z,9.67
2019-03-12T17:20:13.746Z,9.66
2019-03-12T17:22:41.533Z,9.56
2019-03-12T17:25:09.657Z,9.50
2019-03-12T17:27:37.418Z,9.51
2019-03-12T17:30:08.537Z,9.42
2019-03-12T17:32:36.332Z,9.46
2019-03-12T17:35:05.111Z,9.31
2019-03-12T17:37:32.895Z,9.32
2019-03-12T17:40:00.695Z,9.40
2019-03-12T17:42:28.527Z,9.53
2019-03-12T17:44:56.390Z,9.49
2019-03-12T17:47:24.251Z,9.51
2019-03-12T17:49:52.014Z,9.36
2019-03-12T17:52:19.759Z,9.44
2019-03-12T17:54:47.536Z,9.46
2019-03-12T17:57:15.350Z,9.56
2019-03-12T17:59:43.141Z,9.54
2019-03-12T18:02:11.024Z,9.44
2019-03-12T18:04:38.820Z,9.39
2019-03-12T18:07:06.626Z,9.35
2019-03-12T18:09:34.437Z,9.33
2019-03-12T18:12:04.391Z,9.31
2019-03-12T18:14:32.182Z,9.25
2019-03-12T18:16:59.986Z,9.21
2019-03-12T18:19:27.785Z,9.27
2019-03-12T18:21:57.924Z,9.16
2019-03-12T18:24:25.706Z,9.16
2019-03-12T18:26:53.593Z,9.27
2019-03-12T18:29:22.559Z,9.22
2019-03-12T18:31:50.335Z,9.13
2019-03-12T18:34:18.109Z,9.15
2019-03-12T18:36:45.911Z,9.20
2019-03-12T18:39:13.665Z,9.13
2019-03-12T18:41:41.486Z,9.09
2019-03-12T18:44:09.278Z,9.24
2019-03-12T18:46:37.856Z,9.07
2019-03-12T18:49:05.622Z,9.13
2019-03-12T18:51:33.401Z,9.04
2019-03-12T18:54:01.154Z,9.21
2019-03-12T18:56:28.917Z,9.14
2019-03-12T18:58:56.672Z,9.10
2019-03-12T19:01:24.478Z,9.06
2019-03-12T19:03:52.268Z,9.05
2019-03-12T19:06:20.048Z,9.12
2019-03-12T19:08:48.325Z,9.13
2019-03-12T19:11:16.188Z,9.02
2019-03-12T19:13:44.123Z,9.01
2019-03-12T19:16:11.966Z,9.01
2019-03-12T19:18:42.608Z,9.00
2019-03-12T19:21:10.387Z,8.98
2019-03-12T19:23:38.201Z,8.86
2019-03-12T19:26:07.894Z,8.86
2019-03-12T19:28:35.732Z,8.79
2019-03-12T19:31:32.255Z,8.85
2019-03-12T19:34:04.907Z,8.89
2019-03-12T19:36:32.661Z,8.84
2019-03-12T19:39:00.422Z,8.87
2019-03-12T19:41:28.177Z,8.88
2019-03-12T19:43:56.064Z,8.91
2019-03-12T19:46:23.836Z,8.96
2019-03-12T19:48:51.628Z,8.97
2019-03-12T19:51:19.493Z,8.95
2019-03-12T19:53:47.269Z,9.09
2019-03-12T19:56:15.020Z,9.09
2019-03-12T19:58:42.845Z,9.08
2019-03-12T20:01:11.723Z,9.08
2019-03-12T20:03:39.565Z,9.22
2019-03-12T20:06:07.547Z,9.18
2019-03-12T20:08:35.387Z,9.22
2019-03-12T20:12:05.441Z,9.18
2019-03-12T20:15:29.936Z,9.18
2019-03-12T20:18:54.437Z,9.12
2019-03-12T20:22:24.163Z,9.17
2019-03-12T20:26:01.564Z,9.16
2019-03-12T20:29:09.240Z,9.18
2019-03-12T20:33:01.949Z,9.07
2019-03-12T20:36:48.339Z,9.13
2019-03-12T20:40:22.158Z,9.22
2019-03-12T20:44:38.939Z,9.24
2019-03-12T20:48:11.793Z,9.15
2019-03-12T20:51:38.692Z,9.23
2019-03-12T20:55:07.069Z,9.13
2019-03-12T20:58:48.114Z,9.10
2019-03-12T21:02:24.034Z,9.13
2019-03-12T21:05:55.668Z,9.14
2019-03-12T21:09:43.295Z,9.21
2019-03-12T21:13:21.847Z,9.18
2019-03-12T21:16:47.870Z,9.05
2019-03-12T21:20:39.220Z,9.13
2019-03-12T21:24:01.386Z,9.21
2019-03-12T21:27:22.766Z,9.20
2019-03-12T21:29:50.507Z,9.16
2019-03-12T21:32:18.999Z,9.13
2019-03-12T21:34:47.139Z,9.14
2019-03-12T21:37:15.067Z,9.13
2019-03-12T21:39:54.436Z,9.16
2019-03-12T21:42:12.667Z,9.26
2019-03-12T21:44:40.462Z,9.33
2019-03-12T21:47:08.551Z,9.40
2019-03-12T21:49:36.328Z,9.34
2019-03-12T21:52:04.878Z,9.41
2019-03-12T21:54:32.732Z,9.34
2019-03-12T21:57:00.510Z,9.41
2019-03-12T21:59:28.318Z,9.50
2019-03-12T22:01:56.102Z,9.50
2019-03-12T22:04:23.894Z,9.46
2019-03-12T22:06:51.663Z,9.45
2019-03-12T22:09:19.542Z,9.42
2019-03-12T22:11:47.307Z,9.38
2019-03-12T22:14:15.112Z,9.47
2019-03-12T22:16:43.784Z,9.42
2019-03-12T22:19:11.591Z,9.35
2019-03-12T22:22:07.887Z,9.41
2019-03-12T22:24:35.805Z,9.36
2019-03-12T22:27:03.573Z,9.34
2019-03-12T22:29:31.335Z,9.41
2019-03-12T22:31:59.321Z,9.45
2019-03-12T22:34:30.077Z,9.54
2019-03-12T22:36:56.727Z,9.55
2019-03-12T22:39:24.532Z,9.42
2019-03-12T22:41:52.362Z,9.43
2019-03-12T22:44:20.133Z,9.43
2019-03-12T22:46:47.920Z,9.57
2019-03-12T22:49:16.483Z,9.52
2019-03-12T22:51:44.261Z,9.50
2019-03-12T22:54:11.997Z,9.40
2019-03-12T22:56:39.782Z,9.31
2019-03-12T22:59:07.545Z,9.38
2019-03-12T23:01:35.311Z,9.34
2019-03-12T23:04:03.041Z,9.41
2019-03-12T23:06:30.838Z,9.44
2019-03-12T23:08:58.613Z,9.44
2019-03-12T23:11:26.393Z,9.50
2019-03-12T23:13:54.126Z,9.34
2019-03-12T23:16:21.896Z,9.34
2019-03-12T23:18:49.696Z,9.45
2019-03-12T23:21:17.454Z,9.46
2019-03-12T23:23:45.216Z,9.44
2019-03-12T23:26:12.940Z,9.44
2019-03-12T23:28:40.700Z,9.41
2019-03-12T23:31:08.696Z,9.52
2019-03-12T23:33:36.590Z,9.47
2019-03-12T23:36:04.343Z,9.55
2019-03-12T23:38:32.096Z,9.48
2019-03-12T23:40:59.924Z,9.39
2019-03-12T23:43:27.680Z,9.54
2019-03-12T23:45:55.438Z,9.40
2019-03-12T23:48:23.236Z,9.47
2019-03-12T23:50:51.426Z,9.53
2019-03-12T23:53:19.378Z,9.60
2019-03-12T23:55:47.291Z,9.50
2019-03-12T23:58:15.059Z,9.50
